createdAt,value
2023-03-06T00:48:08.282Z,3.80
2023-03-06T00:50:36.985Z,3.97
2023-03-06T00:53:05.529Z,3.55
2023-03-06T00:55:34.084Z,3.88
2023-03-06T00:58:02.525Z,3.30
2023-03-06T01:46:27.568Z,3.20
2023-03-06T01:48:59.030Z,2.97
2023-03-06T01:51:34.454Z,3.15
2023-03-06T01:54:13.038Z,2.78
2023-03-06T01:56:45.468Z,3.13
2023-03-06T01:59:14.709Z,3.22
2023-03-06T02:48:35.540Z,2.83
2023-03-06T02:51:04.606Z,2.88
2023-03-06T02:53:34.159Z,3.35
2023-03-06T02:56:03.144Z,2.95
2023-03-06T02:58:31.759Z,3.08
2023-03-06T03:48:24.844Z,2.53
2023-03-06T03:50:54.472Z,2.42
2023-03-06T03:53:25.964Z,2.20
2023-03-06T03:55:54.546Z,2.15
2023-03-06T03:58:23.309Z,2.33
2023-03-06T04:46:16.971Z,2.30
2023-03-06T04:48:47.335Z,2.50
2023-03-06T04:51:18.332Z,2.05
2023-03-06T04:53:48.871Z,2.80
2023-03-06T04:56:19.325Z,2.40
2023-03-06T04:58:49.782Z,2.40
2023-03-06T05:48:09.297Z,1.70
2023-03-06T05:50:37.859Z,1.80
2023-03-06T05:53:07.397Z,1.80
2023-03-06T05:55:36.079Z,1.92
2023-03-06T05:58:04.551Z,1.73
2023-03-06T06:00:33.120Z,1.83
2023-03-06T06:03:02.902Z,1.63
2023-03-06T06:05:32.728Z,1.83
2023-03-06T06:08:01.132Z,1.73
2023-03-06T06:10:29.626Z,1.63
2023-03-06T06:12:59.093Z,1.90
2023-03-06T06:15:28.947Z,1.88
2023-03-06T06:17:57.713Z,1.60
2023-03-06T06:20:27.502Z,1.85
2023-03-06T06:22:57.399Z,1.70
2023-03-06T06:25:26.164Z,2.05
2023-03-06T06:27:57.820Z,1.73
2023-03-06T06:30:26.458Z,1.52
2023-03-06T06:38:41.336Z,2.00
2023-03-06T06:41:38.824Z,1.85
2023-03-06T06:43:59.134Z,1.67
2023-03-06T06:49:18.382Z,1.98
2023-03-06T06:51:47.251Z,1.90
2023-03-06T06:54:17.056Z,1.90
2023-03-06T06:56:45.626Z,1.80
2023-03-06T06:59:16.952Z,1.75
2023-03-06T07:01:46.284Z,1.40
2023-03-06T07:04:15.250Z,1.30
2023-03-06T07:06:44.176Z,1.20
2023-03-06T07:09:14.432Z,1.20
2023-03-06T07:11:44.392Z,1.40
2023-03-06T07:14:12.807Z,1.20
2023-03-06T07:16:41.389Z,1.08
2023-03-06T07:19:10.246Z,1.10
2023-03-06T07:21:38.816Z,1.45
2023-03-06T07:24:07.584Z,1.30
2023-03-06T07:26:36.566Z,1.10
2023-03-06T07:29:06.842Z,1.20
2023-03-06T07:31:35.488Z,1.30
2023-03-06T07:34:05.081Z,1.40
2023-03-06T07:36:34.234Z,1.30
2023-03-06T07:39:02.845Z,1.10
2023-03-06T07:41:31.407Z,1.00
2023-03-06T07:44:00.007Z,1.15
2023-03-06T07:46:30.262Z,1.08
2023-03-06T07:48:59.428Z,1.33
2023-03-06T07:51:27.910Z,1.00
2023-03-06T07:53:56.526Z,1.20
2023-03-06T07:56:24.976Z,1.10
2023-03-06T07:58:55.296Z,1.40
2023-03-06T08:01:24.651Z,1.17
2023-03-06T08:03:54.961Z,1.27
2023-03-06T08:06:26.882Z,1.17
2023-03-06T08:08:56.855Z,1.17
2023-03-06T08:11:28.238Z,1.20
2023-03-06T08:13:58.076Z,1.10
2023-03-06T08:16:29.612Z,1.05
2023-03-06T08:18:59.776Z,0.90
2023-03-06T08:21:30.017Z,1.10
2023-03-06T08:23:58.756Z,1.17
2023-03-06T08:26:29.451Z,1.10
2023-03-06T08:29:00.522Z,1.15
2023-03-06T08:31:32.534Z,0.98
2023-03-06T08:34:05.318Z,0.93
2023-03-06T08:36:34.569Z,1.05
2023-03-06T08:39:03.355Z,1.00
2023-03-06T08:41:32.426Z,1.20
2023-03-06T08:44:00.887Z,1.08
2023-03-06T08:46:31.577Z,2.10
2023-03-06T08:49:01.649Z,1.10
2023-03-06T08:51:30.486Z,1.15
2023-03-06T08:53:59.654Z,0.95
2023-03-06T08:56:30.323Z,1.20
2023-03-06T08:59:00.745Z,1.10
2023-03-06T09:01:32.179Z,1.00
2023-03-06T09:04:05.576Z,1.13
2023-03-06T09:06:36.531Z,1.38
2023-03-06T09:09:06.541Z,0.90
2023-03-06T09:11:35.203Z,1.67
2023-03-06T09:14:04.999Z,1.05
2023-03-06T09:16:33.847Z,1.08
2023-03-06T09:19:03.764Z,0.95
2023-03-06T09:21:32.367Z,1.02
2023-03-06T09:24:01.252Z,0.98
2023-03-06T09:26:43.455Z,1.02
2023-03-06T09:29:13.564Z,1.10
2023-03-06T09:31:42.212Z,1.23
2023-03-06T09:34:12.152Z,1.05
2023-03-06T09:36:55.573Z,1.13
2023-03-06T09:39:25.400Z,1.20
2023-03-06T09:41:54.399Z,1.27
2023-03-06T09:44:27.579Z,0.90
2023-03-06T09:47:34.432Z,0.95
2023-03-06T09:50:17.520Z,1.00
2023-03-06T09:52:58.897Z,1.00
2023-03-06T09:55:29.296Z,1.25
2023-03-06T09:58:07.147Z,1.20
2023-03-06T10:00:41.862Z,1.00
2023-03-06T10:03:20.699Z,1.10
2023-03-06T10:05:56.277Z,0.90
2023-03-06T10:08:37.411Z,1.10
2023-03-06T10:11:11.464Z,1.10
2023-03-06T10:13:43.523Z,1.27
2023-03-06T10:16:27.534Z,1.17
2023-03-06T10:18:58.439Z,1.30
2023-03-06T10:21:44.477Z,1.08
2023-03-06T10:24:31.635Z,1.00
2023-03-06T10:27:11.758Z,1.25
2023-03-06T10:30:02.755Z,1.10
2023-03-06T10:32:48.373Z,1.25
2023-03-06T10:35:22.805Z,1.27
2023-03-06T10:37:59.172Z,0.98
2023-03-06T10:40:41.261Z,1.00
2023-03-06T10:43:12.585Z,1.13
2023-03-06T10:45:52.027Z,1.00
2023-03-06T10:48:24.412Z,1.00
2023-03-06T10:50:54.882Z,1.10
2023-03-06T10:53:29.545Z,1.13
2023-03-06T10:56:00.446Z,1.30
2023-03-06T10:58:31.091Z,1.00
2023-03-06T11:01:09.138Z,1.10
2023-03-06T11:03:38.504Z,1.02
2023-03-06T11:06:13.613Z,1.10
2023-03-06T11:08:45.749Z,1.23
2023-03-06T11:11:34.999Z,0.98
2023-03-06T11:14:18.105Z,1.20
2023-03-06T11:16:53.378Z,1.05
2023-03-06T11:19:27.206Z,1.10
2023-03-06T11:22:06.111Z,1.08
2023-03-06T11:24:40.587Z,1.10
2023-03-06T11:27:23.256Z,1.05
2023-03-06T11:29:55.727Z,0.95
2023-03-06T11:32:29.827Z,1.17
2023-03-06T11:35:03.975Z,1.08
2023-03-06T11:37:44.272Z,1.10
2023-03-06T11:40:24.831Z,1.00
2023-03-06T11:43:02.516Z,1.00
2023-03-06T11:45:37.625Z,1.10
2023-03-06T11:48:25.902Z,0.90
2023-03-06T11:51:00.350Z,1.02
2023-03-06T11:53:35.377Z,1.10
2023-03-06T11:56:22.780Z,1.10
2023-03-06T11:59:31.084Z,1.35
2023-03-06T12:02:06.079Z,1.10
2023-03-06T12:04:55.125Z,1.00
2023-03-06T12:07:32.179Z,1.10
2023-03-06T12:10:15.802Z,1.00
2023-03-06T12:13:19.386Z,1.02
2023-03-06T12:16:24.898Z,1.02
2023-03-06T12:19:05.945Z,1.20
2023-03-06T12:21:47.662Z,0.93
2023-03-06T12:24:37.509Z,1.10
2023-03-06T12:27:20.937Z,1.20
2023-03-06T12:30:25.391Z,1.10
2023-03-06T12:33:05.756Z,1.02
2023-03-06T12:36:04.147Z,1.00
2023-03-06T12:39:00.542Z,1.23
2023-03-06T12:41:53.285Z,1.02
2023-03-06T12:44:58.122Z,1.00
2023-03-06T12:47:29.074Z,1.10
2023-03-06T12:50:02.718Z,1.17
2023-03-06T12:52:34.870Z,1.27
2023-03-06T12:55:08.629Z,1.20
2023-03-06T12:57:37.064Z,1.08
2023-03-06T13:00:09.408Z,1.10
2023-03-06T13:03:05.453Z,1.10
2023-03-06T13:06:01.955Z,1.20
2023-03-06T13:09:04.740Z,1.10
2023-03-06T13:12:26.852Z,1.20
2023-03-06T13:15:01.714Z,1.50
2023-03-06T13:17:37.751Z,1.08
2023-03-06T13:20:36.333Z,1.00
2023-03-06T13:23:52.128Z,1.27
2023-03-06T13:27:05.964Z,1.30
2023-03-06T13:30:23.936Z,1.38
2023-03-06T13:32:54.923Z,1.02
2023-03-06T13:35:56.373Z,1.17
2023-03-06T13:38:55.172Z,1.20
2023-03-06T13:41:54.833Z,1.50
2023-03-06T13:44:51.558Z,1.40
2023-03-06T13:48:21.100Z,1.52
2023-03-06T13:50:45.402Z,1.50
2023-03-06T13:53:48.407Z,1.30
2023-03-06T13:57:15.187Z,1.80
2023-03-06T14:00:22.661Z,1.70
2023-03-06T14:03:58.204Z,1.52
2023-03-06T14:07:05.481Z,1.88
2023-03-06T14:09:39.268Z,3.40
2023-03-06T14:12:16.608Z,4.70
2023-03-06T14:14:49.730Z,4.50
2023-03-06T14:17:30.369Z,4.95
2023-03-06T14:20:05.586Z,4.05
2023-03-06T14:22:35.559Z,4.85
2023-03-06T14:25:15.108Z,4.20
2023-03-06T14:27:53.542Z,4.43
2023-03-06T14:30:26.341Z,4.05
2023-03-06T14:32:57.437Z,4.13
2023-03-06T14:35:33.304Z,3.90
2023-03-06T14:38:08.584Z,3.95
2023-03-06T14:40:46.102Z,3.90
2023-03-06T14:43:21.493Z,3.58
2023-03-06T14:45:57.403Z,3.83
2023-03-06T14:48:28.643Z,3.53
2023-03-06T14:50:58.086Z,3.78
2023-03-06T14:53:31.278Z,3.75
2023-03-06T14:56:05.955Z,4.03
2023-03-06T14:58:39.443Z,4.10
2023-03-06T15:01:13.210Z,3.67
2023-03-06T15:03:49.331Z,3.25
2023-03-06T15:06:23.530Z,3.15
2023-03-06T15:09:01.286Z,3.40
2023-03-06T15:11:56.099Z,3.35
2023-03-06T15:14:33.779Z,3.65
2023-03-06T15:17:29.189Z,3.85
2023-03-06T15:20:00.424Z,3.72
2023-03-06T15:22:33.586Z,3.45
2023-03-06T15:25:23.315Z,3.33
2023-03-06T15:27:54.451Z,3.20
2023-03-06T15:30:29.727Z,3.15
2023-03-06T15:33:21.092Z,3.60
2023-03-06T15:35:57.100Z,3.25
2023-03-06T15:38:40.046Z,3.67
2023-03-06T15:41:23.842Z,3.20
2023-03-06T15:43:52.732Z,3.10
2023-03-06T15:46:21.200Z,3.25
2023-03-06T15:48:54.631Z,3.45
2023-03-06T15:51:23.458Z,3.30
2023-03-06T15:53:54.999Z,2.80
2023-03-06T15:56:31.215Z,3.13
2023-03-06T15:59:00.488Z,3.00
2023-03-06T16:01:29.295Z,3.03
2023-03-06T16:03:57.893Z,3.13
2023-03-06T16:06:26.552Z,3.40
2023-03-06T16:08:55.034Z,2.97
2023-03-06T16:11:35.392Z,2.85
2023-03-06T16:14:23.658Z,3.00
2023-03-06T16:16:54.051Z,3.45
2023-03-06T16:19:26.853Z,2.95
2023-03-06T16:21:56.702Z,3.20
2023-03-06T16:24:26.187Z,3.08
2023-03-06T16:26:56.803Z,3.05
2023-03-06T16:29:27.302Z,2.80
2023-03-06T16:31:58.734Z,2.55
2023-03-06T16:34:27.603Z,2.85
2023-03-06T16:36:56.212Z,2.53
2023-03-06T16:39:25.869Z,2.90
2023-03-06T16:41:57.017Z,2.85
2023-03-06T16:44:25.620Z,2.80
2023-03-06T16:46:55.168Z,2.90
2023-03-06T16:49:26.354Z,2.92
2023-03-06T16:51:56.220Z,3.08
2023-03-06T16:54:26.274Z,2.95
2023-03-06T16:56:56.190Z,3.20
2023-03-06T16:59:25.182Z,3.10
2023-03-06T17:01:53.628Z,3.30
2023-03-06T17:04:22.128Z,3.00
2023-03-06T17:06:52.601Z,2.85
2023-03-06T17:09:21.108Z,2.60
2023-03-06T17:11:49.684Z,3.08
2023-03-06T17:14:19.652Z,2.72
2023-03-06T17:16:48.219Z,3.45
2023-03-06T17:19:16.718Z,5.07
2023-03-06T17:21:45.387Z,5.30
2023-03-06T17:24:13.859Z,4.75
2023-03-06T17:26:43.378Z,4.65
2023-03-06T17:29:12.147Z,4.13
2023-03-06T17:31:42.207Z,3.97
2023-03-06T17:34:10.754Z,4.25
2023-03-06T17:36:39.316Z,3.63
2023-03-06T17:39:07.857Z,4.43
2023-03-06T17:41:36.519Z,4.20
2023-03-06T17:44:05.606Z,3.72
2023-03-06T17:46:34.662Z,4.57
2023-03-06T17:49:05.009Z,129.68
2023-03-06T17:51:34.742Z,61.28
2023-03-06T17:54:03.472Z,84.88
2023-03-06T17:56:32.074Z,98.03
2023-03-06T17:59:00.900Z,121.68
2023-03-06T18:01:30.639Z,87.85
2023-03-06T18:03:59.337Z,75.55
2023-03-06T18:06:30.317Z,73.43
2023-03-06T18:08:59.247Z,144.65
2023-03-06T18:11:28.676Z,999.90
2023-03-06T18:13:57.478Z,965.50
2023-03-06T18:16:28.116Z,806.70
2023-03-06T18:18:57.978Z,649.45
2023-03-06T18:21:27.947Z,506.25
2023-03-06T18:23:58.179Z,325.08
2023-03-06T18:26:28.548Z,178.80
2023-03-06T18:28:58.938Z,127.45
2023-03-06T18:31:35.059Z,98.38
2023-03-06T18:34:06.672Z,79.72
2023-03-06T18:36:37.525Z,46.63
2023-03-06T18:39:09.651Z,44.28
2023-03-06T18:41:39.132Z,40.90
2023-03-06T18:44:08.123Z,88.05
2023-03-06T18:46:39.370Z,51.75
2023-03-06T18:49:08.154Z,48.38
2023-03-06T18:51:37.930Z,41.97
2023-03-06T18:54:08.079Z,41.45
2023-03-06T18:56:36.690Z,37.10
2023-03-06T18:59:07.718Z,33.17
2023-03-06T19:01:37.628Z,31.92
2023-03-06T19:04:07.089Z,27.92
2023-03-06T19:06:37.938Z,27.23
2023-03-06T19:09:06.939Z,24.90
2023-03-06T19:11:36.207Z,22.65
2023-03-06T19:14:05.288Z,20.95
2023-03-06T19:16:35.019Z,19.80
2023-03-06T19:19:03.639Z,18.70
2023-03-06T19:21:32.222Z,16.73
2023-03-06T19:24:03.926Z,15.57
2023-03-06T19:26:32.563Z,13.82
2023-03-06T19:29:01.190Z,13.32
2023-03-06T19:31:30.214Z,13.35
2023-03-06T19:33:58.987Z,11.80
2023-03-06T19:36:33.652Z,10.93
2023-03-06T19:39:06.716Z,10.07
2023-03-06T19:41:35.813Z,9.50
2023-03-06T19:44:05.856Z,9.82
2023-03-06T19:46:36.105Z,8.98
2023-03-06T19:49:11.704Z,9.02
2023-03-06T19:51:40.721Z,9.05
2023-03-06T19:54:12.581Z,8.30
2023-03-06T19:56:41.583Z,7.65
2023-03-06T19:59:10.133Z,7.80
2023-03-06T20:01:39.676Z,6.90
2023-03-06T20:04:08.335Z,7.10
2023-03-06T20:06:37.672Z,6.95
2023-03-06T20:09:10.199Z,6.63
2023-03-06T20:11:39.419Z,6.40
2023-03-06T20:14:09.836Z,6.85
2023-03-06T20:16:38.911Z,8.50
2023-03-06T20:19:08.659Z,8.13
2023-03-06T20:21:38.400Z,8.43
2023-03-06T20:24:09.956Z,7.50
2023-03-06T20:26:38.727Z,7.70
2023-03-06T20:29:07.500Z,6.60
2023-03-06T20:31:36.157Z,6.45
2023-03-06T20:34:05.969Z,5.65
2023-03-06T20:36:36.811Z,5.88
2023-03-06T20:39:08.066Z,6.28
2023-03-06T20:41:38.411Z,6.20
2023-03-06T20:44:09.874Z,6.90
2023-03-06T20:46:39.784Z,6.38
2023-03-06T20:49:09.602Z,7.47
2023-03-06T20:51:40.214Z,7.93
2023-03-06T20:54:11.139Z,7.28
2023-03-06T20:56:43.343Z,8.05
2023-03-06T20:59:13.611Z,8.15
2023-03-06T21:01:44.306Z,8.75
2023-03-06T21:04:15.759Z,8.68
2023-03-06T21:06:46.765Z,8.00
2023-03-06T21:09:17.785Z,9.15
2023-03-06T21:11:48.130Z,8.88
2023-03-06T21:14:17.007Z,8.27
2023-03-06T21:16:46.118Z,8.32
2023-03-06T21:19:14.860Z,7.82
2023-03-06T21:21:43.485Z,8.18
2023-03-06T21:24:12.162Z,6.80
2023-03-06T21:26:40.723Z,8.80
2023-03-06T21:29:10.883Z,7.97
2023-03-06T21:31:40.319Z,8.32
2023-03-06T21:34:11.648Z,7.78
2023-03-06T21:36:40.439Z,8.20
2023-03-06T21:39:09.195Z,8.20
2023-03-06T21:41:38.282Z,7.78
2023-03-06T21:44:09.219Z,7.60
2023-03-06T21:46:37.839Z,7.30
2023-03-06T21:49:06.961Z,6.88
2023-03-06T21:51:35.626Z,6.88
2023-03-06T21:54:04.531Z,6.78
2023-03-06T21:56:33.583Z,7.28
2023-03-06T21:59:02.677Z,7.10
2023-03-06T22:01:32.908Z,6.47
2023-03-06T22:04:01.567Z,7.00
2023-03-06T22:06:32.023Z,6.38
2023-03-06T22:09:02.373Z,6.35
2023-03-06T22:11:34.724Z,6.28
2023-03-06T22:14:03.636Z,6.00
2023-03-06T22:16:34.210Z,6.32
2023-03-06T22:19:02.798Z,5.80
2023-03-06T22:21:40.261Z,5.43
2023-03-06T22:24:13.269Z,5.70
2023-03-06T22:26:45.447Z,5.47
2023-03-06T22:29:16.222Z,5.38
2023-03-06T22:31:46.769Z,5.97
2023-03-06T22:34:15.258Z,5.53
2023-03-06T22:36:43.838Z,6.22
2023-03-06T22:39:14.423Z,5.70
2023-03-06T22:41:43.279Z,5.50
2023-03-06T22:44:17.640Z,5.18
2023-03-06T22:46:47.733Z,5.10
2023-03-06T22:49:17.026Z,5.50
2023-03-06T22:51:45.884Z,5.10
2023-03-06T22:54:14.392Z,5.07
2023-03-06T22:56:43.119Z,4.95
2023-03-06T22:59:11.658Z,4.82
2023-03-06T23:01:40.289Z,5.22
2023-03-06T23:04:11.485Z,5.28
2023-03-06T23:06:42.925Z,4.65
2023-03-06T23:09:16.685Z,4.97
2023-03-06T23:12:03.703Z,4.45
2023-03-06T23:14:51.344Z,4.95
2023-03-06T23:17:38.664Z,4.85
2023-03-06T23:20:27.047Z,4.93
2023-03-06T23:23:14.353Z,4.85
2023-03-06T23:25:43.580Z,4.50
2023-03-06T23:28:12.798Z,4.25
2023-03-06T23:30:42.122Z,4.57
2023-03-06T23:33:11.596Z,4.30
2023-03-06T23:35:41.586Z,4.15
2023-03-06T23:38:10.123Z,4.78
2023-03-06T23:40:40.133Z,4.82
2023-03-06T23:43:08.865Z,4.25
2023-03-06T23:45:37.446Z,4.22
2023-03-06T23:48:08.063Z,4.30
2023-03-06T23:50:36.587Z,4.10
2023-03-06T23:53:06.472Z,4.57
2023-03-06T23:55:35.346Z,4.15
2023-03-06T23:58:03.759Z,4.05
